createdAt,value
2023-02-14T00:01:11.400Z,89.97
2023-02-14T00:03:39.332Z,90.30
2023-02-14T00:06:12.305Z,90.10
2023-02-14T00:08:41.122Z,90.26
2023-02-14T00:11:10.861Z,89.44
2023-02-14T00:13:38.316Z,89.13
2023-02-14T00:16:06.061Z,89.26
2023-02-14T00:18:51.913Z,89.26
2023-02-14T00:21:20.303Z,90.00
2023-02-14T00:23:47.387Z,90.19
2023-02-14T00:26:15.372Z,90.42
2023-02-14T00:28:43.163Z,90.78
2023-02-14T00:31:10.644Z,91.03
2023-02-14T00:33:38.108Z,91.02
2023-02-14T00:36:10.106Z,90.86
2023-02-14T00:38:37.240Z,90.23
2023-02-14T00:41:05.063Z,89.80
2023-02-14T00:43:32.464Z,90.35
2023-02-14T00:45:59.597Z,90.36
2023-02-14T00:48:26.929Z,90.58
2023-02-14T00:50:54.788Z,90.15
2023-02-14T00:53:21.874Z,90.66
2023-02-14T00:55:50.227Z,91.02
2023-02-14T00:58:17.655Z,91.52
2023-02-14T01:00:44.785Z,91.47
2023-02-14T01:03:11.889Z,91.52
2023-02-14T01:05:40.978Z,91.26
2023-02-14T01:08:08.051Z,91.15
2023-02-14T01:10:36.951Z,90.73
2023-02-14T01:13:04.448Z,90.38
2023-02-14T01:15:32.217Z,90.26
2023-02-14T01:18:00.135Z,90.05
2023-02-14T01:20:27.641Z,90.02
2023-02-14T01:22:54.841Z,90.12
2023-02-14T01:25:21.929Z,90.24
2023-02-14T01:27:49.332Z,90.15
2023-02-14T01:30:16.643Z,90.38
2023-02-14T01:32:43.745Z,90.86
2023-02-14T01:35:11.916Z,90.38
2023-02-14T01:37:39.332Z,90.46
2023-02-14T01:40:08.476Z,90.48
2023-02-14T01:42:36.914Z,90.49
2023-02-14T01:45:19.091Z,90.46
2023-02-14T01:47:49.831Z,90.24
2023-02-14T01:50:24.229Z,89.82
2023-02-14T01:52:56.149Z,90.06
2023-02-14T01:55:25.493Z,90.37
2023-02-14T01:57:59.519Z,90.47
2023-02-14T02:00:45.494Z,90.55
2023-02-14T02:03:14.233Z,89.01
2023-02-14T02:05:46.853Z,90.24
2023-02-14T02:08:15.127Z,91.02
2023-02-14T02:10:42.998Z,91.38
2023-02-14T02:13:17.195Z,91.18
2023-02-14T02:15:59.300Z,91.10
2023-02-14T02:18:36.662Z,90.82
2023-02-14T02:21:20.089Z,90.68
2023-02-14T02:24:16.109Z,90.40
2023-02-14T02:26:52.270Z,90.91
2023-02-14T02:29:33.508Z,91.44
2023-02-14T02:32:28.242Z,91.34
2023-02-14T02:34:58.639Z,91.44
2023-02-14T02:37:54.240Z,91.75
2023-02-14T02:40:45.545Z,92.15
2023-02-14T02:43:22.639Z,92.12
2023-02-14T02:46:20.072Z,91.87
2023-02-14T02:49:13.296Z,91.85
2023-02-14T02:52:13.281Z,91.70
2023-02-14T02:54:45.031Z,91.27
2023-02-14T02:57:18.665Z,90.51
2023-02-14T02:59:46.269Z,90.50
2023-02-14T03:02:20.813Z,91.49
2023-02-14T03:04:56.037Z,91.31
2023-02-14T03:07:45.317Z,91.61
2023-02-14T03:10:20.353Z,91.29
2023-02-14T03:13:15.783Z,91.83
2023-02-14T03:15:58.153Z,92.38
2023-02-14T03:18:45.328Z,91.95
2023-02-14T03:21:35.736Z,91.57
2023-02-14T03:24:27.231Z,92.11
2023-02-14T03:27:10.689Z,91.73
2023-02-14T03:29:47.418Z,92.29
2023-02-14T03:32:29.689Z,92.14
2023-02-14T03:35:09.282Z,91.69
2023-02-14T03:37:59.333Z,92.58
2023-02-14T03:40:35.868Z,93.11
2023-02-14T03:43:10.218Z,93.71
2023-02-14T03:45:44.990Z,93.28
2023-02-14T03:48:12.658Z,93.66
2023-02-14T03:50:42.778Z,93.68
2023-02-14T03:53:11.312Z,94.16
2023-02-14T03:55:45.000Z,94.00
2023-02-14T03:58:20.907Z,94.20
2023-02-14T04:00:50.862Z,93.72
2023-02-14T04:03:18.798Z,93.65
2023-02-14T04:05:52.214Z,94.15
2023-02-14T04:08:27.989Z,93.77
2023-02-14T04:10:57.559Z,93.95
2023-02-14T04:13:25.224Z,93.61
2023-02-14T04:15:52.319Z,93.47
2023-02-14T04:18:37.956Z,93.59
2023-02-14T04:21:05.638Z,93.49
2023-02-14T04:23:32.834Z,93.97
2023-02-14T04:25:59.939Z,93.71
2023-02-14T04:28:27.403Z,93.90
2023-02-14T04:30:54.497Z,94.53
2023-02-14T04:33:21.578Z,94.45
2023-02-14T04:35:49.119Z,94.41
2023-02-14T04:38:16.236Z,95.17
2023-02-14T04:40:43.317Z,95.19
2023-02-14T04:43:10.713Z,95.24
2023-02-14T04:45:37.777Z,95.58
2023-02-14T04:48:04.930Z,95.66
2023-02-14T04:50:32.334Z,95.93
2023-02-14T04:52:59.394Z,95.60
2023-02-14T04:55:26.529Z,95.57
2023-02-14T04:57:53.961Z,94.86
2023-02-14T05:00:21.514Z,94.06
2023-02-14T05:02:48.700Z,94.09
2023-02-14T05:05:16.240Z,95.80
2023-02-14T05:07:47.596Z,93.31
2023-02-14T05:10:15.166Z,91.55
2023-02-14T05:12:42.608Z,90.43
2023-02-14T05:15:10.166Z,90.98
2023-02-14T05:17:37.320Z,90.78
2023-02-14T05:20:05.935Z,90.14
2023-02-14T05:22:33.141Z,90.38
2023-02-14T05:25:00.761Z,90.77
2023-02-14T05:27:28.123Z,90.78
2023-02-14T05:29:55.223Z,90.48
2023-02-14T05:32:22.348Z,91.20
2023-02-14T05:34:49.750Z,90.62
2023-02-14T05:37:16.823Z,89.84
2023-02-14T05:39:43.948Z,89.35
2023-02-14T05:42:11.348Z,89.41
2023-02-14T05:44:38.406Z,89.28
2023-02-14T05:47:05.478Z,90.79
2023-02-14T05:49:32.998Z,88.15
2023-02-14T05:52:00.093Z,85.24
2023-02-14T05:54:27.327Z,84.03
2023-02-14T05:56:54.736Z,84.11
2023-02-14T05:59:21.934Z,84.41
2023-02-14T06:01:49.081Z,85.46
2023-02-14T06:04:16.474Z,84.69
2023-02-14T06:06:43.588Z,85.71
2023-02-14T06:09:10.727Z,84.90
2023-02-14T06:11:38.109Z,85.48
2023-02-14T06:14:05.179Z,86.16
2023-02-14T06:16:32.284Z,86.84
2023-02-14T06:18:59.742Z,86.42
2023-02-14T06:21:26.865Z,86.47
2023-02-14T06:23:54.013Z,85.81
2023-02-14T06:26:21.900Z,86.66
2023-02-14T06:28:56.281Z,88.32
2023-02-14T06:31:24.900Z,89.92
2023-02-14T06:33:52.492Z,89.99
2023-02-14T06:36:20.011Z,90.04
2023-02-14T06:38:48.082Z,91.59
2023-02-14T06:41:17.165Z,91.49
2023-02-14T06:43:46.191Z,92.27
2023-02-14T06:46:13.643Z,92.04
2023-02-14T06:48:40.785Z,91.42
2023-02-14T06:51:07.926Z,92.30
2023-02-14T06:53:35.519Z,89.74
2023-02-14T06:56:02.724Z,90.26
2023-02-14T06:58:30.185Z,91.05
2023-02-14T07:00:58.891Z,90.93
2023-02-14T07:03:27.139Z,91.05
2023-02-14T07:05:54.841Z,90.79
2023-02-14T07:08:22.312Z,90.83
2023-02-14T07:10:49.407Z,90.20
2023-02-14T07:13:16.482Z,89.46
2023-02-14T07:15:43.947Z,90.01
2023-02-14T07:18:11.651Z,88.05
2023-02-14T07:20:38.792Z,87.38
2023-02-14T07:23:06.215Z,87.18
2023-02-14T07:25:33.298Z,86.36
2023-02-14T07:28:00.519Z,85.56
2023-02-14T07:30:28.237Z,85.54
2023-02-14T07:32:55.388Z,83.19
2023-02-14T07:35:22.491Z,82.08
2023-02-14T07:37:50.536Z,80.96
2023-02-14T07:40:17.765Z,83.14
2023-02-14T07:42:44.868Z,79.85
2023-02-14T07:45:21.978Z,79.16
2023-02-14T07:47:51.506Z,77.51
2023-02-14T07:50:19.773Z,76.95
2023-02-14T07:52:47.062Z,80.26
2023-02-14T07:55:14.302Z,77.94
2023-02-14T07:57:41.775Z,77.66
2023-02-14T08:00:09.514Z,76.85
2023-02-14T08:02:39.002Z,74.69
2023-02-14T08:05:06.948Z,76.37
2023-02-14T08:07:34.114Z,74.64
2023-02-14T08:10:01.205Z,72.94
2023-02-14T08:12:47.298Z,72.59
2023-02-14T08:15:33.382Z,71.52
2023-02-14T08:18:00.832Z,71.73
2023-02-14T08:20:27.978Z,75.15
2023-02-14T08:22:56.276Z,69.98
2023-02-14T08:25:23.690Z,69.26
2023-02-14T08:27:50.788Z,68.76
2023-02-14T08:30:18.419Z,68.40
2023-02-14T08:32:45.972Z,68.56
2023-02-14T08:35:13.440Z,67.24
2023-02-14T08:37:40.976Z,69.21
2023-02-14T08:40:08.811Z,70.05
2023-02-14T08:42:36.002Z,68.02
2023-02-14T08:45:03.400Z,69.42
2023-02-14T08:47:38.288Z,68.38
2023-02-14T08:50:07.160Z,67.60
2023-02-14T08:52:34.601Z,68.94
2023-02-14T08:55:02.877Z,65.66
2023-02-14T08:57:30.069Z,66.57
2023-02-14T08:59:57.605Z,66.84
2023-02-14T09:02:24.815Z,66.88
2023-02-14T09:04:52.098Z,66.74
2023-02-14T09:07:19.898Z,65.36
2023-02-14T09:09:47.418Z,64.86
2023-02-14T09:12:14.527Z,64.21
2023-02-14T09:14:44.127Z,63.51
2023-02-14T09:17:15.462Z,64.86
2023-02-14T09:19:43.084Z,66.65
2023-02-14T09:22:11.393Z,64.92
2023-02-14T09:24:39.797Z,64.27
2023-02-14T09:27:07.890Z,63.75
2023-02-14T09:29:35.016Z,64.12
2023-02-14T09:32:02.966Z,64.67
2023-02-14T09:34:31.179Z,64.03
2023-02-14T09:37:16.541Z,64.68
2023-02-14T09:39:43.891Z,62.91
2023-02-14T09:42:40.423Z,63.25
2023-02-14T09:45:28.045Z,62.07
2023-02-14T09:48:30.584Z,61.38
2023-02-14T09:51:07.447Z,62.67
2023-02-14T09:54:02.195Z,62.67
2023-02-14T09:56:57.667Z,62.97
2023-02-14T09:59:49.691Z,62.14
2023-02-14T10:02:36.193Z,62.19
2023-02-14T10:05:13.582Z,61.71
2023-02-14T10:07:52.761Z,60.87
2023-02-14T10:10:40.207Z,64.47
2023-02-14T10:13:22.690Z,65.87
2023-02-14T10:15:58.944Z,66.77
2023-02-14T10:18:41.448Z,67.38
2023-02-14T10:21:09.468Z,67.78
2023-02-14T10:23:46.935Z,67.97
2023-02-14T10:26:34.082Z,66.67
2023-02-14T10:29:04.211Z,64.87
2023-02-14T10:31:51.579Z,65.29
2023-02-14T10:34:27.036Z,62.31
2023-02-14T10:37:03.964Z,60.10
2023-02-14T10:39:57.220Z,60.42
2023-02-14T10:42:46.194Z,60.81
2023-02-14T10:45:28.907Z,60.29
2023-02-14T10:48:16.670Z,58.94
2023-02-14T10:50:58.463Z,60.46
2023-02-14T10:53:49.331Z,59.77
2023-02-14T10:56:41.132Z,59.80
2023-02-14T10:59:23.045Z,63.35
2023-02-14T11:01:52.701Z,61.14
2023-02-14T11:04:22.368Z,59.23
2023-02-14T11:06:50.301Z,59.96
2023-02-14T11:09:18.577Z,63.29
2023-02-14T11:11:53.632Z,61.96
2023-02-14T11:14:22.065Z,65.35
2023-02-14T11:16:51.847Z,60.80
2023-02-14T11:19:27.008Z,60.64
2023-02-14T11:21:59.326Z,59.46
2023-02-14T11:24:29.489Z,57.75
2023-02-14T11:27:01.096Z,55.24
2023-02-14T11:29:33.626Z,56.40
2023-02-14T11:32:14.049Z,55.54
2023-02-14T11:34:44.862Z,58.41
2023-02-14T11:37:27.201Z,58.47
2023-02-14T11:39:56.613Z,56.44
2023-02-14T11:42:35.672Z,57.88
2023-02-14T11:45:05.308Z,59.34
2023-02-14T11:47:37.498Z,56.38
2023-02-14T11:50:22.014Z,56.62
2023-02-14T11:52:51.847Z,58.81
2023-02-14T11:55:26.060Z,57.77
2023-02-14T11:57:54.283Z,55.21
2023-02-14T12:00:23.439Z,55.46
2023-02-14T12:02:51.146Z,55.18
2023-02-14T12:05:43.350Z,55.48
2023-02-14T12:08:11.102Z,54.99
2023-02-14T12:10:39.328Z,52.45
2023-02-14T12:13:09.442Z,55.37
2023-02-14T12:15:37.973Z,60.14
2023-02-14T12:18:30.148Z,58.11
2023-02-14T12:21:06.945Z,52.18
2023-02-14T12:23:42.095Z,54.56
2023-02-14T12:26:25.084Z,54.25
2023-02-14T12:29:17.797Z,57.13
2023-02-14T12:31:46.764Z,53.79
2023-02-14T12:34:15.325Z,54.26
2023-02-14T12:37:14.153Z,53.98
2023-02-14T12:39:54.595Z,53.67
2023-02-14T12:42:35.015Z,54.55
2023-02-14T12:45:28.484Z,54.48
2023-02-14T12:48:04.717Z,56.38
2023-02-14T12:51:26.068Z,55.31
2023-02-14T12:54:08.302Z,55.60
2023-02-14T12:57:01.158Z,56.01
2023-02-14T12:59:50.905Z,56.92
2023-02-14T13:02:18.320Z,57.10
2023-02-14T13:04:52.088Z,57.63
2023-02-14T13:07:45.422Z,57.42
2023-02-14T13:10:43.502Z,61.12
2023-02-14T13:13:29.919Z,57.62
2023-02-14T13:16:19.037Z,58.96
2023-02-14T13:19:06.609Z,57.17
2023-02-14T13:21:35.929Z,57.00
2023-02-14T13:24:23.147Z,55.83
2023-02-14T13:26:54.680Z,54.90
2023-02-14T13:29:24.105Z,55.57
2023-02-14T13:31:57.112Z,55.73
2023-02-14T13:34:34.213Z,56.61
2023-02-14T13:37:03.781Z,52.96
2023-02-14T13:39:38.741Z,53.64
2023-02-14T13:42:07.247Z,52.91
2023-02-14T13:44:49.079Z,53.04
2023-02-14T13:47:18.008Z,53.09
2023-02-14T13:49:57.082Z,54.74
2023-02-14T13:52:47.308Z,53.26
2023-02-14T13:55:19.281Z,53.82
2023-02-14T13:57:48.228Z,54.02
2023-02-14T14:00:21.667Z,55.17
2023-02-14T14:02:56.862Z,55.69
2023-02-14T14:05:47.698Z,55.97
2023-02-14T14:08:21.126Z,55.18
2023-02-14T14:10:55.305Z,54.86
2023-02-14T14:13:40.856Z,55.64
2023-02-14T14:16:20.903Z,54.36
2023-02-14T14:18:48.957Z,57.00
2023-02-14T14:21:59.247Z,56.13
2023-02-14T14:24:32.211Z,57.07
2023-02-14T14:27:15.500Z,57.68
2023-02-14T14:29:47.040Z,57.49
2023-02-14T14:32:28.537Z,58.32
2023-02-14T14:35:20.632Z,57.56
2023-02-14T14:37:55.840Z,56.75
2023-02-14T14:40:36.160Z,56.75
2023-02-14T14:43:12.399Z,56.27
2023-02-14T14:45:42.984Z,57.16
2023-02-14T14:48:17.305Z,56.87
2023-02-14T14:50:46.403Z,56.68
2023-02-14T14:53:21.327Z,56.48
2023-02-14T14:55:52.324Z,57.39
2023-02-14T14:58:38.263Z,56.62
2023-02-14T15:01:08.536Z,55.99
2023-02-14T15:03:35.750Z,56.63
2023-02-14T15:06:22.644Z,56.59
2023-02-14T15:08:51.444Z,56.21
2023-02-14T15:11:38.392Z,56.16
2023-02-14T15:14:09.016Z,56.13
2023-02-14T15:16:47.232Z,56.68
2023-02-14T15:19:17.589Z,56.22
2023-02-14T15:21:45.815Z,56.81
2023-02-14T15:24:15.114Z,57.77
2023-02-14T15:26:47.087Z,57.66
2023-02-14T15:29:26.684Z,57.72
2023-02-14T15:31:54.706Z,58.96
2023-02-14T15:34:30.476Z,58.84
2023-02-14T15:37:03.662Z,58.97
2023-02-14T15:39:40.552Z,59.70
2023-02-14T15:42:32.949Z,59.97
2023-02-14T15:45:22.563Z,61.55
2023-02-14T15:48:03.942Z,62.19
2023-02-14T15:50:36.200Z,62.68
2023-02-14T15:53:28.721Z,61.18
2023-02-14T15:56:12.784Z,62.50
2023-02-14T15:58:40.783Z,62.67
2023-02-14T16:01:08.337Z,63.03
2023-02-14T16:03:39.397Z,63.79
2023-02-14T16:06:07.064Z,64.01
2023-02-14T16:08:36.838Z,64.57
2023-02-14T16:11:15.911Z,65.32
2023-02-14T16:13:46.931Z,66.72
2023-02-14T16:16:15.456Z,67.31
2023-02-14T16:18:54.194Z,69.31
2023-02-14T16:21:29.260Z,68.41
2023-02-14T16:24:05.503Z,69.63
2023-02-14T16:26:34.385Z,69.63
2023-02-14T16:29:05.705Z,69.92
2023-02-14T16:31:34.183Z,70.42
2023-02-14T16:34:01.654Z,70.28
2023-02-14T16:36:30.852Z,69.54
2023-02-14T16:38:58.926Z,70.60
2023-02-14T16:41:27.910Z,70.59
2023-02-14T16:43:55.956Z,69.22
2023-02-14T16:46:26.165Z,69.28
2023-02-14T16:48:53.530Z,69.50
2023-02-14T16:51:28.782Z,70.54
2023-02-14T16:53:58.559Z,69.84
2023-02-14T16:56:33.899Z,70.06
2023-02-14T16:59:01.325Z,70.32
2023-02-14T17:01:28.561Z,70.71
2023-02-14T17:03:55.889Z,71.14
2023-02-14T17:06:27.654Z,71.37
2023-02-14T17:08:56.848Z,71.83
2023-02-14T17:11:25.612Z,71.70
2023-02-14T17:13:53.573Z,72.04
2023-02-14T17:16:21.101Z,72.47
2023-02-14T17:18:53.648Z,72.75
2023-02-14T17:21:22.815Z,73.03
2023-02-14T17:23:50.450Z,74.84
2023-02-14T17:26:20.419Z,73.56
2023-02-14T17:28:47.633Z,74.02
2023-02-14T17:31:15.552Z,74.74
2023-02-14T17:33:42.766Z,74.61
2023-02-14T17:36:12.849Z,75.11
2023-02-14T17:38:43.351Z,75.28
2023-02-14T17:41:15.418Z,75.37
2023-02-14T17:43:44.080Z,75.29
2023-02-14T17:46:14.165Z,75.68
2023-02-14T17:48:45.360Z,75.87
2023-02-14T17:51:14.366Z,76.17
2023-02-14T17:53:41.767Z,76.32
2023-02-14T17:56:14.674Z,76.62
2023-02-14T17:58:42.248Z,76.71
2023-02-14T18:01:11.552Z,77.01
2023-02-14T18:03:39.505Z,77.14
2023-02-14T18:06:07.506Z,77.98
2023-02-14T18:08:37.793Z,77.28
2023-02-14T18:11:06.823Z,77.34
2023-02-14T18:13:34.803Z,77.46
2023-02-14T18:16:03.315Z,77.64
2023-02-14T18:18:31.373Z,77.82
2023-02-14T18:21:00.757Z,78.28
2023-02-14T18:23:28.964Z,78.47
2023-02-14T18:25:58.190Z,78.92
2023-02-14T18:28:26.045Z,78.80
2023-02-14T18:30:53.854Z,78.99
2023-02-14T18:33:21.463Z,79.06
2023-02-14T18:35:48.600Z,80.46
2023-02-14T18:38:15.774Z,79.28
2023-02-14T18:40:43.338Z,79.24
2023-02-14T18:43:10.500Z,79.52
2023-02-14T18:45:38.716Z,79.65
2023-02-14T18:48:06.600Z,80.28
2023-02-14T18:50:33.817Z,79.65
2023-02-14T18:53:01.036Z,80.04
2023-02-14T18:55:28.918Z,80.25
2023-02-14T18:57:56.090Z,80.32
2023-02-14T19:00:23.653Z,80.77
2023-02-14T19:02:51.513Z,81.10
2023-02-14T19:05:18.798Z,81.18
2023-02-14T19:07:46.167Z,80.98
2023-02-14T19:10:13.676Z,80.74
2023-02-14T19:12:40.868Z,81.32
2023-02-14T19:15:08.534Z,80.84
2023-02-14T19:17:37.742Z,81.22
2023-02-14T19:20:08.578Z,81.19
2023-02-14T19:22:39.946Z,81.35
2023-02-14T19:25:08.392Z,81.72
2023-02-14T19:27:36.983Z,82.09
2023-02-14T19:30:05.001Z,81.79
2023-02-14T19:32:32.169Z,82.67
2023-02-14T19:34:59.640Z,82.39
2023-02-14T19:37:26.918Z,82.66
2023-02-14T19:39:54.101Z,83.30
2023-02-14T19:42:21.663Z,83.30
2023-02-14T19:44:48.866Z,83.12
2023-02-14T19:47:30.924Z,83.38
2023-02-14T19:50:01.290Z,83.87
2023-02-14T19:52:28.548Z,85.04
2023-02-14T19:54:56.010Z,83.68
2023-02-14T19:57:23.959Z,84.13
2023-02-14T19:59:51.116Z,84.48
2023-02-14T20:02:19.838Z,84.30
2023-02-14T20:04:47.358Z,84.52
2023-02-14T20:07:14.541Z,84.12
2023-02-14T20:09:41.762Z,84.03
2023-02-14T20:12:09.884Z,84.66
2023-02-14T20:14:50.341Z,84.61
2023-02-14T20:17:19.445Z,84.69
2023-02-14T20:19:46.719Z,84.54
2023-02-14T20:22:13.893Z,84.41
2023-02-14T20:24:41.464Z,84.04
2023-02-14T20:27:08.684Z,83.93
2023-02-14T20:29:38.863Z,84.21
2023-02-14T20:32:06.583Z,84.01
2023-02-14T20:34:33.931Z,84.31
2023-02-14T20:37:01.113Z,84.96
2023-02-14T20:39:31.910Z,83.82
2023-02-14T20:42:00.082Z,83.76
2023-02-14T20:44:27.725Z,84.30
2023-02-14T20:46:56.058Z,84.00
2023-02-14T20:49:24.987Z,84.32
2023-02-14T20:51:52.552Z,83.92
2023-02-14T20:54:21.754Z,84.44
2023-02-14T20:56:50.739Z,84.49
2023-02-14T20:59:24.301Z,85.19
2023-02-14T21:01:51.915Z,84.71
2023-02-14T21:04:19.230Z,84.61
2023-02-14T21:06:48.708Z,84.72
2023-02-14T21:09:18.536Z,84.60
2023-02-14T21:11:45.683Z,84.75
2023-02-14T21:14:13.274Z,84.29
2023-02-14T21:16:40.692Z,83.98
2023-02-14T21:19:07.768Z,84.05
2023-02-14T21:21:36.501Z,84.79
2023-02-14T21:24:07.274Z,84.16
2023-02-14T21:26:34.814Z,86.75
2023-02-14T21:29:02.111Z,83.50
2023-02-14T21:31:30.017Z,84.09
2023-02-14T21:33:58.662Z,84.65
2023-02-14T21:36:27.927Z,83.91
2023-02-14T21:38:58.230Z,83.62
2023-02-14T21:41:27.658Z,83.66
2023-02-14T21:43:58.794Z,84.16
2023-02-14T21:46:30.896Z,83.32
2023-02-14T21:49:18.444Z,84.45
2023-02-14T21:51:46.468Z,84.09
2023-02-14T21:54:13.741Z,84.41
2023-02-14T21:56:44.172Z,84.06
2023-02-14T21:59:11.989Z,84.37
2023-02-14T22:01:41.506Z,84.69
2023-02-14T22:04:11.427Z,83.86
2023-02-14T22:06:40.694Z,83.70
2023-02-14T22:09:08.100Z,84.21
2023-02-14T22:11:35.509Z,84.36
2023-02-14T22:14:02.706Z,85.01
2023-02-14T22:16:30.004Z,85.19
2023-02-14T22:18:57.400Z,85.10
2023-02-14T22:21:26.660Z,84.48
2023-02-14T22:23:55.044Z,84.97
2023-02-14T22:26:23.969Z,85.04
2023-02-14T22:28:54.007Z,85.82
2023-02-14T22:31:21.421Z,85.22
2023-02-14T22:33:49.189Z,85.60
2023-02-14T22:36:16.528Z,86.18
2023-02-14T22:38:43.971Z,85.37
2023-02-14T22:41:16.640Z,85.81
2023-02-14T22:43:44.310Z,85.69
2023-02-14T22:46:23.325Z,86.39
2023-02-14T22:48:51.279Z,86.26
2023-02-14T22:51:32.678Z,86.69
2023-02-14T22:54:05.599Z,85.21
2023-02-14T22:56:35.378Z,85.03
2023-02-14T22:59:05.861Z,85.67
2023-02-14T23:01:34.450Z,86.30
2023-02-14T23:04:03.378Z,86.76
2023-02-14T23:06:32.453Z,87.18
2023-02-14T23:09:00.190Z,87.58
2023-02-14T23:11:29.768Z,87.27
2023-02-14T23:14:16.012Z,87.50
2023-02-14T23:17:03.193Z,87.30
2023-02-14T23:19:51.134Z,87.21
2023-02-14T23:22:22.331Z,87.25
2023-02-14T23:24:51.433Z,86.95
2023-02-14T23:27:25.584Z,87.35
2023-02-14T23:29:52.722Z,87.25
2023-02-14T23:32:20.204Z,87.13
2023-02-14T23:34:47.398Z,86.49
2023-02-14T23:37:14.737Z,86.43
2023-02-14T23:39:42.156Z,87.02
2023-02-14T23:42:11.675Z,86.81
2023-02-14T23:44:38.767Z,86.94
2023-02-14T23:47:08.620Z,87.12
2023-02-14T23:49:37.520Z,87.35
2023-02-14T23:52:06.687Z,88.06
2023-02-14T23:54:34.718Z,87.62
2023-02-14T23:57:02.032Z,87.52
2023-02-14T23:59:29.173Z,88.14
